createdAt,value
2022-10-16T00:02:10.275Z,54.65
2022-10-16T00:04:36.610Z,53.98
2022-10-16T00:07:03.070Z,53.79
2022-10-16T00:09:29.408Z,53.91
2022-10-16T00:11:57.035Z,54.47
2022-10-16T00:14:23.408Z,54.20
2022-10-16T00:16:49.715Z,54.41
2022-10-16T00:19:16.120Z,54.24
2022-10-16T00:21:42.470Z,54.30
2022-10-16T00:24:09.911Z,54.20
2022-10-16T00:26:36.783Z,54.29
2022-10-16T00:29:05.068Z,54.19
2022-10-16T00:31:31.516Z,54.56
2022-10-16T00:33:58.045Z,54.32
2022-10-16T00:36:25.553Z,54.45
2022-10-16T00:38:52.837Z,54.61
2022-10-16T00:41:19.513Z,54.52
2022-10-16T00:43:46.491Z,54.67
2022-10-16T00:46:17.335Z,54.56
2022-10-16T00:48:46.274Z,54.73
2022-10-16T00:51:12.756Z,54.20
2022-10-16T00:53:39.131Z,53.96
2022-10-16T00:56:05.684Z,53.95
2022-10-16T01:05:56.225Z,54.40
2022-10-16T01:08:28.186Z,54.16
2022-10-16T01:10:58.151Z,54.15
2022-10-16T01:13:28.408Z,54.31
2022-10-16T01:15:56.887Z,54.19
2022-10-16T01:18:27.292Z,54.48
2022-10-16T01:20:55.988Z,54.41
2022-10-16T01:23:28.218Z,54.38
2022-10-16T01:26:05.162Z,54.35
2022-10-16T01:28:35.393Z,54.59
2022-10-16T01:31:02.594Z,54.47
2022-10-16T01:33:31.102Z,54.74
2022-10-16T01:36:00.051Z,54.17
2022-10-16T01:38:30.645Z,53.99
2022-10-16T01:41:00.321Z,53.86
2022-10-16T01:43:29.289Z,54.34
2022-10-16T01:45:57.658Z,54.18
2022-10-16T01:48:24.279Z,54.20
2022-10-16T01:50:53.235Z,54.16
2022-10-16T01:53:19.814Z,54.15
2022-10-16T01:55:48.571Z,54.16
2022-10-16T01:58:15.518Z,54.35
2022-10-16T02:00:44.123Z,54.32
2022-10-16T02:03:13.489Z,54.39
2022-10-16T02:05:42.004Z,54.35
2022-10-16T02:08:08.466Z,54.34
2022-10-16T02:10:36.318Z,54.45
2022-10-16T02:13:07.000Z,54.44
2022-10-16T02:15:33.346Z,54.56
2022-10-16T02:17:59.662Z,54.63
2022-10-16T02:20:28.862Z,54.72
2022-10-16T02:22:56.770Z,54.64
2022-10-16T02:25:25.667Z,54.50
2022-10-16T02:27:54.774Z,53.96
2022-10-16T02:30:23.988Z,53.88
2022-10-16T02:32:51.136Z,54.70
2022-10-16T02:35:19.170Z,54.29
2022-10-16T02:37:47.253Z,54.29
2022-10-16T02:40:14.064Z,54.34
2022-10-16T02:42:41.087Z,54.27
2022-10-16T02:45:09.026Z,54.37
2022-10-16T02:47:35.392Z,54.33
2022-10-16T02:50:01.945Z,54.35
2022-10-16T02:52:28.935Z,54.38
2022-10-16T02:54:56.857Z,54.48
2022-10-16T02:57:23.369Z,54.57
2022-10-16T02:59:50.023Z,54.59
2022-10-16T03:02:16.356Z,54.59
2022-10-16T03:04:42.676Z,54.68
2022-10-16T03:07:09.025Z,54.57
2022-10-16T03:09:35.344Z,54.44
2022-10-16T03:12:03.050Z,53.96
2022-10-16T03:14:29.365Z,54.21
2022-10-16T03:16:55.795Z,54.08
2022-10-16T03:19:22.183Z,54.56
2022-10-16T03:21:49.459Z,54.13
2022-10-16T03:24:15.789Z,54.35
2022-10-16T03:26:42.149Z,54.23
2022-10-16T03:29:09.860Z,54.24
2022-10-16T03:31:36.353Z,54.49
2022-10-16T03:34:02.755Z,54.34
2022-10-16T03:36:29.082Z,54.49
2022-10-16T03:38:55.394Z,54.47
2022-10-16T03:41:21.734Z,54.53
2022-10-16T03:43:48.055Z,54.40
2022-10-16T03:46:15.706Z,54.66
2022-10-16T03:48:42.119Z,54.64
2022-10-16T03:51:08.473Z,54.71
2022-10-16T03:53:34.810Z,54.71
2022-10-16T03:56:01.142Z,54.67
2022-10-16T03:58:27.518Z,54.65
2022-10-16T04:00:53.957Z,54.51
2022-10-16T04:03:21.699Z,54.18
2022-10-16T04:05:48.037Z,54.10
2022-10-16T04:08:14.374Z,54.70
2022-10-16T04:10:40.704Z,54.42
2022-10-16T04:13:07.196Z,54.53
2022-10-16T04:15:33.835Z,54.43
2022-10-16T04:18:00.176Z,54.48
2022-10-16T04:20:27.789Z,54.28
2022-10-16T04:22:54.171Z,54.44
2022-10-16T04:25:20.488Z,54.58
2022-10-16T04:27:46.816Z,54.70
2022-10-16T04:30:13.217Z,54.58
2022-10-16T04:32:39.664Z,54.56
2022-10-16T04:35:06.575Z,54.66
2022-10-16T04:37:34.239Z,54.58
2022-10-16T04:40:00.575Z,54.66
2022-10-16T04:42:26.931Z,54.73
2022-10-16T04:44:53.396Z,54.08
2022-10-16T04:47:19.702Z,54.16
2022-10-16T04:49:46.003Z,54.60
2022-10-16T04:52:12.357Z,54.37
2022-10-16T04:54:40.138Z,54.46
2022-10-16T04:57:06.499Z,54.39
2022-10-16T04:59:32.838Z,54.25
2022-10-16T05:01:59.162Z,54.46
2022-10-16T05:04:25.486Z,54.26
2022-10-16T05:06:51.862Z,54.50
2022-10-16T05:09:18.223Z,54.58
2022-10-16T05:11:45.869Z,54.53
2022-10-16T05:14:12.382Z,54.75
2022-10-16T05:16:38.860Z,54.56
2022-10-16T05:19:26.134Z,54.71
2022-10-16T05:21:51.704Z,54.69
2022-10-16T05:24:18.114Z,54.73
2022-10-16T05:26:45.717Z,54.90
2022-10-16T05:29:12.055Z,54.88
2022-10-16T05:31:38.384Z,54.16
2022-10-16T05:34:04.759Z,54.17
2022-10-16T05:36:31.144Z,54.61
2022-10-16T05:38:57.615Z,54.50
2022-10-16T05:41:24.099Z,54.34
2022-10-16T05:43:51.719Z,54.28
2022-10-16T05:46:18.187Z,54.34
2022-10-16T05:48:44.621Z,54.30
2022-10-16T05:51:12.265Z,54.41
2022-10-16T05:53:39.463Z,54.56
2022-10-16T05:56:06.722Z,54.55
2022-10-16T05:58:34.322Z,54.41
2022-10-16T06:01:03.157Z,54.51
2022-10-16T06:03:29.616Z,54.57
2022-10-16T06:05:56.036Z,54.55
2022-10-16T06:08:23.228Z,54.56
2022-10-16T06:10:49.733Z,54.73
2022-10-16T06:13:16.093Z,54.27
2022-10-16T06:15:43.474Z,53.95
2022-10-16T06:18:11.220Z,54.28
2022-10-16T06:20:37.990Z,54.10
2022-10-16T06:23:04.409Z,54.20
2022-10-16T06:25:30.802Z,54.25
2022-10-16T06:27:57.229Z,54.02
2022-10-16T06:30:23.615Z,54.28
2022-10-16T06:32:50.011Z,54.25
2022-10-16T06:35:17.676Z,54.43
2022-10-16T06:37:44.038Z,54.40
2022-10-16T06:40:10.431Z,54.48
2022-10-16T06:42:36.829Z,54.49
2022-10-16T06:45:03.289Z,54.59
2022-10-16T06:47:29.618Z,54.51
2022-10-16T06:49:55.943Z,54.49
2022-10-16T06:52:23.832Z,54.61
2022-10-16T06:54:50.707Z,54.60
2022-10-16T06:57:17.058Z,54.72
2022-10-16T06:59:46.844Z,54.41
2022-10-16T07:02:13.428Z,53.52
2022-10-16T07:04:39.761Z,54.35
2022-10-16T07:07:08.586Z,54.05
2022-10-16T07:09:37.144Z,54.15
2022-10-16T07:12:03.627Z,54.11
2022-10-16T07:14:30.145Z,54.04
2022-10-16T07:16:56.466Z,54.21
2022-10-16T07:19:22.871Z,54.15
2022-10-16T07:21:49.210Z,54.38
2022-10-16T07:24:16.504Z,54.33
2022-10-16T07:26:44.996Z,54.28
2022-10-16T07:29:13.157Z,54.33
2022-10-16T07:31:39.597Z,54.34
2022-10-16T07:34:06.521Z,54.35
2022-10-16T07:36:32.922Z,54.51
2022-10-16T07:39:00.373Z,54.40
2022-10-16T07:41:27.471Z,53.90
2022-10-16T07:43:55.502Z,53.82
2022-10-16T07:46:23.232Z,53.85
2022-10-16T07:48:49.597Z,54.54
2022-10-16T07:51:17.317Z,54.12
2022-10-16T07:53:43.753Z,54.34
2022-10-16T07:56:10.494Z,54.18
2022-10-16T07:58:36.951Z,54.10
2022-10-16T08:01:06.026Z,54.17
2022-10-16T08:03:32.639Z,54.49
2022-10-16T08:05:59.085Z,54.53
2022-10-16T08:08:25.659Z,54.32
2022-10-16T08:10:52.037Z,54.32
2022-10-16T08:13:18.363Z,54.44
2022-10-16T08:15:45.213Z,54.52
2022-10-16T08:18:13.541Z,54.50
2022-10-16T08:20:40.414Z,54.57
2022-10-16T08:23:07.101Z,54.65
2022-10-16T08:25:35.150Z,54.83
2022-10-16T08:28:01.510Z,54.21
2022-10-16T08:30:27.864Z,53.85
2022-10-16T08:32:54.249Z,54.14
2022-10-16T08:35:21.964Z,54.30
2022-10-16T08:37:48.261Z,54.32
2022-10-16T08:40:18.213Z,54.51
2022-10-16T08:42:54.104Z,54.48
2022-10-16T08:45:25.092Z,54.34
2022-10-16T08:47:57.342Z,54.41
2022-10-16T08:50:26.332Z,54.40
2022-10-16T08:52:52.741Z,54.37
2022-10-16T08:55:26.689Z,54.45
2022-10-16T08:57:53.055Z,54.51
2022-10-16T09:00:20.023Z,54.58
2022-10-16T09:02:51.558Z,54.58
2022-10-16T09:05:23.974Z,54.75
2022-10-16T09:07:56.632Z,54.73
2022-10-16T09:10:29.329Z,54.73
2022-10-16T09:13:00.213Z,54.38
2022-10-16T09:15:30.146Z,54.17
2022-10-16T09:18:00.837Z,53.93
2022-10-16T09:20:31.268Z,54.28
2022-10-16T09:23:08.934Z,54.59
2022-10-16T09:25:36.140Z,54.41
2022-10-16T09:28:02.544Z,54.58
2022-10-16T09:30:30.086Z,54.36
2022-10-16T09:32:58.276Z,54.46
2022-10-16T09:35:28.333Z,54.44
2022-10-16T09:37:55.742Z,54.50
2022-10-16T09:40:27.468Z,54.36
2022-10-16T09:42:57.541Z,54.47
2022-10-16T09:45:24.606Z,54.54
2022-10-16T09:47:54.074Z,54.49
2022-10-16T09:50:24.635Z,54.69
2022-10-16T09:52:51.266Z,54.84
2022-10-16T09:55:18.490Z,54.76
2022-10-16T09:57:51.009Z,53.89
2022-10-16T10:00:17.773Z,54.07
2022-10-16T10:02:44.470Z,54.20
2022-10-16T10:05:19.393Z,54.82
2022-10-16T10:07:45.955Z,54.30
2022-10-16T10:10:21.356Z,54.21
2022-10-16T10:12:47.774Z,54.29
2022-10-16T10:15:16.262Z,54.32
2022-10-16T10:17:46.661Z,54.32
2022-10-16T10:20:16.759Z,54.36
2022-10-16T10:22:43.755Z,54.41
2022-10-16T10:25:16.436Z,54.38
2022-10-16T10:27:49.288Z,54.66
2022-10-16T10:30:20.665Z,54.48
2022-10-16T10:32:52.122Z,54.67
2022-10-16T10:35:23.042Z,54.64
2022-10-16T10:38:00.050Z,54.72
2022-10-16T10:40:35.242Z,54.97
2022-10-16T10:43:05.321Z,54.25
2022-10-16T10:45:39.227Z,54.20
2022-10-16T10:48:25.109Z,53.97
2022-10-16T10:50:55.242Z,54.79
2022-10-16T10:53:26.030Z,54.59
2022-10-16T10:55:57.605Z,54.67
2022-10-16T10:58:36.526Z,54.52
2022-10-16T11:01:07.738Z,54.58
2022-10-16T11:03:43.938Z,54.71
2022-10-16T11:06:13.531Z,54.64
2022-10-16T11:08:42.138Z,54.71
2022-10-16T11:11:11.772Z,54.79
2022-10-16T11:13:43.425Z,54.85
2022-10-16T11:16:27.316Z,54.77
2022-10-16T11:18:59.490Z,54.90
2022-10-16T11:21:30.363Z,54.78
2022-10-16T11:24:01.241Z,54.95
2022-10-16T11:26:29.953Z,54.57
2022-10-16T11:28:57.436Z,53.81
2022-10-16T11:31:29.234Z,54.10
2022-10-16T11:33:59.779Z,54.90
2022-10-16T11:36:28.755Z,54.60
2022-10-16T11:38:58.838Z,54.44
2022-10-16T11:41:28.830Z,54.44
2022-10-16T11:44:04.212Z,54.51
2022-10-16T11:46:33.493Z,54.28
2022-10-16T11:49:04.445Z,54.39
2022-10-16T11:51:34.467Z,54.52
2022-10-16T11:54:04.685Z,54.59
2022-10-16T11:56:33.095Z,54.52
2022-10-16T11:59:02.298Z,54.78
2022-10-16T12:01:32.899Z,54.78
2022-10-16T12:04:06.231Z,54.74
2022-10-16T12:06:35.655Z,54.81
2022-10-16T12:09:02.319Z,55.02
2022-10-16T12:11:34.434Z,54.47
2022-10-16T12:14:18.807Z,53.71
2022-10-16T12:16:52.140Z,53.92
2022-10-16T12:19:20.629Z,54.60
2022-10-16T12:21:47.144Z,54.37
2022-10-16T12:24:22.565Z,54.28
2022-10-16T12:26:49.968Z,54.34
2022-10-16T12:29:33.838Z,54.34
2022-10-16T12:32:00.455Z,54.32
2022-10-16T12:34:30.579Z,54.54
2022-10-16T12:37:08.309Z,54.44
2022-10-16T12:39:35.560Z,54.58
2022-10-16T12:42:02.845Z,54.65
2022-10-16T12:44:33.485Z,54.70
2022-10-16T12:46:59.860Z,54.78
2022-10-16T12:49:32.830Z,54.84
2022-10-16T12:51:59.204Z,54.86
2022-10-16T12:54:28.430Z,54.35
2022-10-16T12:57:03.532Z,54.39
2022-10-16T12:59:34.396Z,54.29
2022-10-16T13:02:22.744Z,54.82
2022-10-16T13:05:02.335Z,54.41
2022-10-16T13:07:34.837Z,54.51
2022-10-16T13:10:06.943Z,54.28
2022-10-16T13:12:45.110Z,54.48
2022-10-16T13:15:25.010Z,54.58
2022-10-16T13:17:57.052Z,54.46
2022-10-16T13:20:29.649Z,54.57
2022-10-16T13:23:03.494Z,54.71
2022-10-16T13:25:36.018Z,54.73
2022-10-16T13:28:03.124Z,54.78
2022-10-16T13:30:30.992Z,54.80
2022-10-16T13:32:59.685Z,54.63
2022-10-16T13:35:28.590Z,54.89
2022-10-16T13:38:04.108Z,54.79
2022-10-16T13:40:30.418Z,54.94
2022-10-16T13:42:56.901Z,54.62
2022-10-16T13:45:24.162Z,53.82
2022-10-16T13:47:50.732Z,54.25
2022-10-16T13:50:18.625Z,54.62
2022-10-16T13:52:46.513Z,54.58
2022-10-16T13:55:13.358Z,54.67
2022-10-16T13:57:40.263Z,54.45
2022-10-16T14:00:18.372Z,54.62
2022-10-16T14:02:45.060Z,54.79
2022-10-16T14:05:11.618Z,54.85
2022-10-16T14:07:38.932Z,54.91
2022-10-16T14:10:07.915Z,55.18
2022-10-16T14:12:35.317Z,54.97
2022-10-16T14:15:02.356Z,54.95
2022-10-16T14:17:29.819Z,55.13
2022-10-16T14:19:59.759Z,55.28
2022-10-16T14:22:31.264Z,55.25
2022-10-16T14:24:57.712Z,54.86
2022-10-16T14:27:29.307Z,54.92
2022-10-16T14:30:09.459Z,54.82
2022-10-16T14:32:35.889Z,55.30
2022-10-16T14:35:02.238Z,54.84
2022-10-16T14:37:29.827Z,54.89
2022-10-16T14:39:56.921Z,54.81
2022-10-16T14:42:24.924Z,55.03
2022-10-16T14:44:53.319Z,54.99
2022-10-16T14:47:20.816Z,55.07
2022-10-16T14:49:47.119Z,55.19
2022-10-16T14:52:13.522Z,55.00
2022-10-16T14:54:39.858Z,55.13
2022-10-16T14:57:06.310Z,55.06
2022-10-16T14:59:34.352Z,55.19
2022-10-16T15:02:02.616Z,55.35
2022-10-16T15:04:29.035Z,55.37
2022-10-16T15:06:55.326Z,55.26
2022-10-16T15:09:21.625Z,54.58
2022-10-16T15:11:47.941Z,54.09
2022-10-16T15:16:46.277Z,55.32
2022-10-16T15:19:14.054Z,54.74
2022-10-16T15:21:40.428Z,54.79
2022-10-16T15:24:10.636Z,55.04
2022-10-16T15:26:37.044Z,54.88
2022-10-16T15:29:03.379Z,55.00
2022-10-16T15:31:29.717Z,54.86
2022-10-16T15:33:56.078Z,55.13
2022-10-16T15:36:27.923Z,55.24
2022-10-16T15:38:54.402Z,55.16
2022-10-16T15:41:20.831Z,55.26
2022-10-16T15:43:48.770Z,55.24
2022-10-16T15:46:15.124Z,55.26
2022-10-16T15:48:41.451Z,55.39
2022-10-16T15:51:08.715Z,55.40
2022-10-16T15:53:36.350Z,55.40
2022-10-16T15:56:02.978Z,55.18
2022-10-16T15:58:29.341Z,54.87
2022-10-16T16:00:56.067Z,54.93
2022-10-16T16:03:22.422Z,55.28
2022-10-16T16:05:48.765Z,55.28
2022-10-16T16:08:15.217Z,55.14
2022-10-16T16:10:42.847Z,55.25
2022-10-16T16:13:09.154Z,55.23
2022-10-16T16:15:35.577Z,55.16
2022-10-16T16:18:01.913Z,55.27
2022-10-16T16:20:28.249Z,55.38
2022-10-16T16:22:54.658Z,55.38
2022-10-16T16:25:20.980Z,55.54
2022-10-16T16:27:48.587Z,55.63
2022-10-16T16:30:18.418Z,55.58
2022-10-16T16:32:46.250Z,55.66
2022-10-16T16:35:12.581Z,55.74
2022-10-16T16:37:38.978Z,55.07
2022-10-16T16:40:05.888Z,54.87
2022-10-16T16:42:32.187Z,55.29
2022-10-16T16:44:59.856Z,55.02
2022-10-16T16:47:26.610Z,54.92
2022-10-16T16:49:53.188Z,55.65
2022-10-16T16:52:19.569Z,55.40
2022-10-16T16:54:46.016Z,55.25
2022-10-16T16:57:12.466Z,55.24
2022-10-16T16:59:38.825Z,55.12
2022-10-16T17:02:06.507Z,55.20
2022-10-16T17:04:32.880Z,55.23
2022-10-16T17:06:59.247Z,55.30
2022-10-16T17:09:25.623Z,55.42
2022-10-16T17:11:52.044Z,55.53
2022-10-16T17:14:18.876Z,55.52
2022-10-16T17:16:45.497Z,55.70
2022-10-16T17:19:14.048Z,55.53
2022-10-16T17:21:40.622Z,55.67
2022-10-16T17:24:08.384Z,55.84
2022-10-16T17:26:34.931Z,56.16
2022-10-16T17:29:02.206Z,55.68
2022-10-16T17:31:29.922Z,55.56
2022-10-16T17:33:57.883Z,55.48
2022-10-16T17:36:25.696Z,56.04
2022-10-16T17:38:52.018Z,55.55
2022-10-16T17:41:19.450Z,55.76
2022-10-16T17:43:46.532Z,55.67
2022-10-16T17:46:13.631Z,55.54
2022-10-16T17:48:40.693Z,55.68
2022-10-16T17:51:07.225Z,55.81
2022-10-16T17:53:35.350Z,56.00
2022-10-16T17:56:03.930Z,55.74
2022-10-16T17:58:30.334Z,55.91
2022-10-16T18:00:56.644Z,56.04
2022-10-16T18:03:23.047Z,56.07
2022-10-16T18:05:49.376Z,56.10
2022-10-16T18:08:15.719Z,55.03
2022-10-16T18:10:46.711Z,55.34
2022-10-16T18:13:13.088Z,55.26
2022-10-16T18:15:39.530Z,55.46
2022-10-16T18:18:05.888Z,55.92
2022-10-16T18:20:32.504Z,55.55
2022-10-16T18:22:58.895Z,55.58
2022-10-16T18:25:25.278Z,55.47
2022-10-16T18:27:52.960Z,55.52
2022-10-16T18:30:19.377Z,55.63
2022-10-16T18:32:45.732Z,55.68
2022-10-16T18:37:39.346Z,55.67
2022-10-16T18:40:05.871Z,55.95
2022-10-16T18:42:32.220Z,55.86
2022-10-16T18:44:59.830Z,55.95
2022-10-16T18:47:26.641Z,55.86
2022-10-16T18:49:53.135Z,56.03
2022-10-16T18:52:19.456Z,56.00
2022-10-16T18:54:45.774Z,56.15
2022-10-16T18:57:12.075Z,55.58
2022-10-16T18:59:38.426Z,55.66
2022-10-16T19:02:06.474Z,56.15
2022-10-16T19:04:32.853Z,56.03
2022-10-16T19:06:59.171Z,55.79
2022-10-16T19:09:25.482Z,55.71
2022-10-16T19:14:23.150Z,55.81
2022-10-16T19:16:49.465Z,55.96
2022-10-16T19:19:18.101Z,56.09
2022-10-16T19:21:44.609Z,55.92
2022-10-16T19:24:12.592Z,56.10
2022-10-16T19:26:41.242Z,56.04
2022-10-16T19:29:09.353Z,56.14
2022-10-16T19:31:35.654Z,56.14
2022-10-16T19:34:02.828Z,56.45
2022-10-16T19:36:31.301Z,56.04
2022-10-16T19:38:58.413Z,55.95
2022-10-16T19:41:25.205Z,55.97
2022-10-16T19:43:52.048Z,56.13
2022-10-16T19:46:19.186Z,55.94
2022-10-16T19:48:45.713Z,55.98
2022-10-16T19:51:12.754Z,55.91
2022-10-16T19:53:40.572Z,55.87
2022-10-16T19:56:11.827Z,55.92
2022-10-16T19:58:38.164Z,56.14
2022-10-16T20:01:04.567Z,56.10
2022-10-16T20:03:30.978Z,56.08
2022-10-16T20:05:57.411Z,56.26
2022-10-16T20:08:24.003Z,56.21
2022-10-16T20:10:52.507Z,56.23
2022-10-16T20:13:19.321Z,56.53
2022-10-16T20:15:45.757Z,56.37
2022-10-16T20:18:12.232Z,55.12
2022-10-16T20:20:38.627Z,55.56
2022-10-16T20:23:05.179Z,56.52
2022-10-16T20:25:34.211Z,55.91
2022-10-16T20:28:01.898Z,55.67
2022-10-16T20:30:28.267Z,55.81
2022-10-16T20:32:54.587Z,55.99
2022-10-16T20:35:20.933Z,56.08
2022-10-16T20:37:47.377Z,56.05
2022-10-16T20:40:13.769Z,55.98
2022-10-16T20:42:40.110Z,56.15
2022-10-16T20:45:08.469Z,56.24
2022-10-16T20:47:34.873Z,56.14
2022-10-16T20:50:01.215Z,56.36
2022-10-16T20:52:28.134Z,56.32
2022-10-16T20:54:54.581Z,56.26
2022-10-16T20:57:20.878Z,55.48
2022-10-16T20:59:48.527Z,55.17
2022-10-16T21:02:16.186Z,56.09
2022-10-16T21:04:42.585Z,56.17
2022-10-16T21:07:08.948Z,55.91
2022-10-16T21:09:35.418Z,55.95
2022-10-16T21:12:01.750Z,55.86
2022-10-16T21:14:28.090Z,55.92
2022-10-16T21:16:54.411Z,55.90
2022-10-16T21:19:22.031Z,56.01
2022-10-16T21:21:48.425Z,56.18
2022-10-16T21:24:16.638Z,56.41
2022-10-16T21:26:43.859Z,56.37
2022-10-16T21:29:10.814Z,56.37
2022-10-16T21:31:37.405Z,56.23
2022-10-16T21:34:03.985Z,56.60
2022-10-16T21:36:32.910Z,56.38
2022-10-16T21:39:12.543Z,56.43
2022-10-16T21:41:39.270Z,56.14
2022-10-16T21:44:06.498Z,56.02
2022-10-16T21:46:35.612Z,56.30
2022-10-16T21:49:03.086Z,56.00
2022-10-16T21:51:31.582Z,56.09
2022-10-16T21:53:59.453Z,56.08
2022-10-16T21:56:26.203Z,56.05
2022-10-16T21:58:52.950Z,55.74
2022-10-16T22:01:20.488Z,56.37
2022-10-16T22:03:47.424Z,56.23
2022-10-16T22:06:15.055Z,56.29
2022-10-16T22:08:41.923Z,56.40
2022-10-16T22:11:10.643Z,56.33
2022-10-16T22:13:37.256Z,56.48
2022-10-16T22:16:03.841Z,56.58
2022-10-16T22:18:30.920Z,56.70
2022-10-16T22:20:57.334Z,56.03
2022-10-16T22:23:24.031Z,56.17
2022-10-16T22:25:50.383Z,55.69
2022-10-16T22:28:18.049Z,56.04
2022-10-16T22:30:45.263Z,56.29
2022-10-16T22:33:11.815Z,55.98
2022-10-16T22:35:38.359Z,56.08
2022-10-16T22:38:04.978Z,55.99
2022-10-16T22:40:33.248Z,55.97
2022-10-16T22:42:59.604Z,56.24
2022-10-16T22:45:27.252Z,56.25
2022-10-16T22:47:53.605Z,56.36
2022-10-16T22:50:19.976Z,56.39
2022-10-16T22:52:46.279Z,56.36
2022-10-16T22:55:12.729Z,56.58
2022-10-16T22:57:39.140Z,56.47
2022-10-16T23:00:06.575Z,56.62
2022-10-16T23:02:34.215Z,56.43
2022-10-16T23:05:01.888Z,56.46
2022-10-16T23:07:28.331Z,56.07
2022-10-16T23:09:54.712Z,55.93
2022-10-16T23:12:21.054Z,56.70
2022-10-16T23:14:47.382Z,56.22
2022-10-16T23:17:13.751Z,56.32
2022-10-16T23:19:40.101Z,56.09
2022-10-16T23:22:07.723Z,56.26
2022-10-16T23:24:34.246Z,56.33
2022-10-16T23:27:00.610Z,56.37
2022-10-16T23:29:27.058Z,56.25
2022-10-16T23:31:53.621Z,56.36
2022-10-16T23:34:20.163Z,56.69
2022-10-16T23:36:46.724Z,56.70
2022-10-16T23:39:14.894Z,56.67
2022-10-16T23:41:41.339Z,56.57
2022-10-16T23:44:07.698Z,56.70
2022-10-16T23:46:34.386Z,56.89
2022-10-16T23:49:00.718Z,55.73
2022-10-16T23:51:28.038Z,55.45
2022-10-16T23:53:54.385Z,55.66
2022-10-16T23:56:22.008Z,56.39
2022-10-16T23:58:48.531Z,56.02
